This is the latest recevied weather packets stored in our database for station/object WV4O. If no packets are shown the sender has not sent any weather packets the latest 10 day(s).
| Time | Temp. | Humidity | Pressure | Rain* | Wind** | Luminosity | Snow |
|---|---|---|---|---|---|---|---|
| 1778146539 | 9.44° C | 96% | 1015.3 hPa | 0 mm | - | 0 W/m² | - |
| 1778145358 | 9.44° C | 95% | 1015.1 hPa | 0 mm | - | 0 W/m² | - |
| 1778144738 | 9.44° C | 95% | 1014.8 hPa | 0 mm | - | 0 W/m² | - |
| 1778139958 | 10.56° C | 93% | 1015 hPa | 0 mm | - | 0 W/m² | - |
| 1778129159 | 11.11° C | 91% | 1015 hPa | 0 mm | - | 0 W/m² | - |
| 1778126736 | 11.67° C | 89% | 1015.3 hPa | 0 mm | - | 0 W/m² | - |
| 1778126136 | 11.67° C | 88% | 1015.4 hPa | 0 mm | - | 0 W/m² | - |
| 1778121317 | 12.22° C | 86% | 1014.8 hPa | 0 mm | - | 0 W/m² | - |
| 1778118918 | 11.67° C | 94% | 1014.4 hPa | 0 mm | - | 0 W/m² | - |
| 1778115319 | 12.78° C | 85% | 1015 hPa | 0 mm | - | 1 W/m² | - |
| 1778109917 | 12.78° C | 81% | 1012.5 hPa | 0 mm | - | 44 W/m² | - |
| 1778107517 | 13.33° C | 84% | 1013.7 hPa | 0 mm | - | 79 W/m² | - |
| 1778105719 | 13.33° C | 85% | 1013.9 hPa | 0 mm | - | 61 W/m² | - |
| 1778099717 | 13.89° C | 82% | 1014 hPa | 0 mm | - | 92 W/m² | - |
| 1778097317 | 13.89° C | 79% | 1014.2 hPa | 0 mm | - | 70 W/m² | - |
| 1778094318 | 13.33° C | 81% | 1012.8 hPa | 0 mm | - | 421 W/m² | - |
| 1778086516 | 11.67° C | 90% | 1012.8 hPa | 0 mm | - | 294 W/m² | - |
| 1778084117 | 11.11° C | 91% | 1014.2 hPa | 0 mm | - | 173 W/m² | - |
| 1778079341 | 10.56° C | 93% | 1013 hPa | 0 mm | - | 258 W/m² | - |
| 1778073917 | 9.44° C | 96% | 1012.3 hPa | 0 mm | - | 105 W/m² | - |
| 1778073316 | 9.44° C | 96% | 1012 hPa | 0 mm | - | 117 W/m² | - |
| 1778063718 | 10° C | 99% | 1010.7 hPa | 0 mm | - | 0 W/m² | - |
| 1778062518 | 10° C | 99% | 1010.5 hPa | 0 mm | - | 0 W/m² | - |
| 1778058316 | 10° C | 99% | 1009.3 hPa | 0 mm | - | 0 W/m² | - |
| 1778057117 | 10.56° C | 99% | 1009.5 hPa | 0 mm | - | 0 W/m² | - |
* Rain latest hour (hover to see other rain measurements)
** Current wind speed in m/s (hover to see current wind gust speed)